createdAt,value
2023-04-30T00:01:59.199Z,91.72
2023-04-30T00:04:26.057Z,92.57
2023-04-30T00:06:52.822Z,92.20
2023-04-30T00:09:19.765Z,91.13
2023-04-30T00:11:46.716Z,91.05
2023-04-30T00:14:13.388Z,90.55
2023-04-30T00:16:40.162Z,90.67
2023-04-30T00:19:06.865Z,90.75
2023-04-30T00:21:33.833Z,91.28
2023-04-30T00:24:04.071Z,92.64
2023-04-30T00:26:31.033Z,92.37
2023-04-30T00:28:57.743Z,93.35
2023-04-30T00:31:24.547Z,93.88
2023-04-30T00:33:52.039Z,93.68
2023-04-30T00:36:18.685Z,95.06
2023-04-30T00:38:45.402Z,94.62
2023-04-30T00:41:12.383Z,94.43
2023-04-30T00:43:39.030Z,95.69
2023-04-30T00:46:06.920Z,94.76
2023-04-30T00:48:33.711Z,95.05
2023-04-30T00:51:03.050Z,93.66
2023-04-30T00:53:29.873Z,92.27
2023-04-30T00:55:57.877Z,90.43
2023-04-30T00:58:24.573Z,90.42
2023-04-30T01:00:52.223Z,90.93
2023-04-30T01:03:19.151Z,90.84
2023-04-30T01:05:46.057Z,90.63
2023-04-30T01:08:12.811Z,91.25
2023-04-30T01:10:52.459Z,90.88
2023-04-30T01:13:30.505Z,91.52
2023-04-30T01:16:08.579Z,91.62
2023-04-30T01:18:42.252Z,92.03
2023-04-30T01:21:09.527Z,91.63
2023-04-30T01:23:55.638Z,91.50
2023-04-30T01:26:53.228Z,90.98
2023-04-30T01:31:52.047Z,91.07
2023-04-30T01:34:18.828Z,91.33
2023-04-30T01:40:20.189Z,91.34
2023-04-30T01:43:20.160Z,91.66
2023-04-30T01:46:04.256Z,91.89
2023-04-30T01:49:02.469Z,90.53
2023-04-30T01:51:56.286Z,90.76
2023-04-30T01:54:29.513Z,91.48
2023-04-30T01:57:06.266Z,90.52
2023-04-30T01:59:39.323Z,90.00
2023-04-30T02:02:06.941Z,90.42
2023-04-30T02:04:33.663Z,90.41
2023-04-30T02:07:00.474Z,89.96
2023-04-30T02:09:27.127Z,90.39
2023-04-30T02:11:53.808Z,90.62
2023-04-30T02:14:20.563Z,89.83
2023-04-30T02:19:18.459Z,89.84
2023-04-30T02:21:45.132Z,90.04
2023-04-30T02:24:11.810Z,90.41
2023-04-30T02:26:38.506Z,90.22
2023-04-30T02:29:05.136Z,90.84
2023-04-30T02:31:32.169Z,90.81
2023-04-30T02:33:58.863Z,89.91
2023-04-30T02:36:25.647Z,89.50
2023-04-30T02:38:52.303Z,89.45
2023-04-30T02:43:50.182Z,88.64
2023-04-30T02:46:16.927Z,88.28
2023-04-30T02:48:43.661Z,87.17
2023-04-30T02:53:41.579Z,89.16
2023-04-30T02:56:08.516Z,89.09
2023-04-30T02:58:35.173Z,89.44
2023-04-30T03:01:01.865Z,88.66
2023-04-30T03:03:28.720Z,88.31
2023-04-30T03:05:57.040Z,88.66
2023-04-30T03:08:23.768Z,87.77
2023-04-30T03:10:50.479Z,88.84
2023-04-30T03:13:17.216Z,90.42
2023-04-30T03:15:44.010Z,90.62
2023-04-30T03:18:11.438Z,90.43
2023-04-30T03:20:38.219Z,90.36
2023-04-30T03:23:04.880Z,90.26
2023-04-30T03:25:31.610Z,90.08
2023-04-30T03:27:58.771Z,88.74
2023-04-30T03:30:25.445Z,89.21
2023-04-30T03:32:52.125Z,90.20
2023-04-30T03:35:19.414Z,91.12
2023-04-30T03:37:46.129Z,90.12
2023-04-30T03:40:13.395Z,87.57
2023-04-30T03:42:40.304Z,86.01
2023-04-30T03:45:07.594Z,87.24
2023-04-30T03:47:35.444Z,87.74
2023-04-30T03:50:03.175Z,87.83
2023-04-30T03:52:31.481Z,88.83
2023-04-30T03:54:58.246Z,88.79
2023-04-30T03:57:24.969Z,88.72
2023-04-30T03:59:51.923Z,87.78
2023-04-30T04:04:51.499Z,89.72
2023-04-30T04:09:49.490Z,91.60
2023-04-30T04:12:16.262Z,89.47
2023-04-30T04:17:14.439Z,90.39
2023-04-30T04:19:41.161Z,91.93
2023-04-30T04:22:07.828Z,90.75
2023-04-30T04:24:34.618Z,88.87
2023-04-30T04:29:34.868Z,90.15
2023-04-30T04:32:03.002Z,91.28
2023-04-30T04:34:29.733Z,92.96
2023-04-30T04:39:36.896Z,92.95
2023-04-30T04:44:41.636Z,90.82
2023-04-30T04:47:08.808Z,89.87
2023-04-30T04:49:35.472Z,89.09
2023-04-30T04:52:02.291Z,87.10
2023-04-30T04:54:29.002Z,87.26
2023-04-30T04:56:55.923Z,87.45
2023-04-30T04:59:22.572Z,87.25
2023-04-30T05:01:49.355Z,89.04
2023-04-30T05:04:16.204Z,88.61
2023-04-30T05:06:43.098Z,86.54
2023-04-30T05:09:10.342Z,87.03
2023-04-30T05:11:37.019Z,88.10
2023-04-30T05:14:03.698Z,88.99
2023-04-30T05:16:30.465Z,87.73
2023-04-30T05:18:57.249Z,85.14
2023-04-30T05:21:24.021Z,85.30
2023-04-30T05:23:50.795Z,85.16
2023-04-30T05:26:17.555Z,86.66
2023-04-30T05:28:44.358Z,85.23
2023-04-30T05:31:11.050Z,84.30
2023-04-30T05:33:37.723Z,84.61
2023-04-30T05:36:04.677Z,84.46
2023-04-30T05:38:31.407Z,82.65
2023-04-30T05:40:58.191Z,82.25
2023-04-30T05:45:58.542Z,82.34
2023-04-30T05:48:25.271Z,81.76
2023-04-30T05:50:51.939Z,82.15
2023-04-30T05:53:18.776Z,82.05
2023-04-30T05:55:45.484Z,82.51
2023-04-30T05:58:12.115Z,83.40
2023-04-30T06:00:39.599Z,82.99
2023-04-30T06:03:06.582Z,82.30
2023-04-30T06:05:33.352Z,81.63
2023-04-30T06:08:00.070Z,81.93
2023-04-30T06:10:26.990Z,79.73
2023-04-30T06:12:53.745Z,80.24
2023-04-30T06:15:20.458Z,79.48
2023-04-30T06:17:47.182Z,78.21
2023-04-30T06:20:15.047Z,76.73
2023-04-30T06:22:41.759Z,77.17
2023-04-30T06:25:09.111Z,77.65
2023-04-30T06:27:35.863Z,77.68
2023-04-30T06:30:02.629Z,77.27
2023-04-30T06:32:29.384Z,77.27
2023-04-30T06:34:56.092Z,76.37
2023-04-30T06:37:22.793Z,75.46
2023-04-30T06:39:49.837Z,76.02
2023-04-30T06:44:48.314Z,75.93
2023-04-30T06:47:15.310Z,74.09
2023-04-30T06:49:41.984Z,73.07
2023-04-30T06:52:08.770Z,72.63
2023-04-30T06:54:35.528Z,72.42
2023-04-30T06:57:02.183Z,71.12
2023-04-30T06:59:29.789Z,71.26
2023-04-30T07:01:56.473Z,68.92
2023-04-30T07:04:24.818Z,69.99
2023-04-30T07:06:51.689Z,70.34
2023-04-30T07:09:18.373Z,70.87
2023-04-30T07:11:45.538Z,70.07
2023-04-30T07:14:12.266Z,70.40
2023-04-30T07:16:38.891Z,70.51
2023-04-30T07:19:05.595Z,70.35
2023-04-30T07:21:32.983Z,69.00
2023-04-30T07:23:59.694Z,67.22
2023-04-30T07:26:26.758Z,66.35
2023-04-30T07:28:53.529Z,69.24
2023-04-30T07:31:20.532Z,68.75
2023-04-30T07:33:47.592Z,67.61
2023-04-30T07:36:14.324Z,64.02
2023-04-30T07:38:41.080Z,64.19
2023-04-30T07:41:08.418Z,62.73
2023-04-30T07:43:36.164Z,60.88
2023-04-30T07:46:04.275Z,61.53
2023-04-30T07:48:31.249Z,60.20
2023-04-30T07:50:57.951Z,60.40
2023-04-30T07:53:24.638Z,58.28
2023-04-30T07:55:51.302Z,58.41
2023-04-30T07:58:17.981Z,58.38
2023-04-30T08:05:47.594Z,58.29
2023-04-30T08:08:14.494Z,58.36
2023-04-30T08:10:42.151Z,56.06
2023-04-30T08:13:08.815Z,53.98
2023-04-30T08:15:36.089Z,55.02
2023-04-30T08:18:03.181Z,54.95
2023-04-30T08:20:30.008Z,53.45
2023-04-30T08:22:56.736Z,52.18
2023-04-30T08:25:23.416Z,54.42
2023-04-30T08:27:50.353Z,53.41
2023-04-30T08:30:17.260Z,51.39
2023-04-30T08:32:44.085Z,52.34
2023-04-30T08:35:11.001Z,51.10
2023-04-30T08:37:37.697Z,49.84
2023-04-30T08:40:05.068Z,50.17
2023-04-30T08:42:36.721Z,49.99
2023-04-30T08:45:04.730Z,52.18
2023-04-30T08:47:32.173Z,50.06
2023-04-30T08:49:58.909Z,50.23
2023-04-30T08:52:28.736Z,50.26
2023-04-30T09:00:02.367Z,49.84
2023-04-30T09:02:29.091Z,48.71
2023-04-30T09:04:55.922Z,48.71
2023-04-30T09:07:23.934Z,49.22
2023-04-30T09:09:53.520Z,48.58
2023-04-30T09:12:20.688Z,48.24
2023-04-30T09:15:02.535Z,46.64
2023-04-30T09:17:29.925Z,46.36
2023-04-30T09:20:10.220Z,47.04
2023-04-30T09:22:38.272Z,47.28
2023-04-30T09:25:06.464Z,47.12
2023-04-30T09:27:33.230Z,47.34
2023-04-30T09:29:59.956Z,47.30
2023-04-30T09:32:26.904Z,48.04
2023-04-30T09:34:53.641Z,47.08
2023-04-30T09:37:20.334Z,46.44
2023-04-30T09:39:55.347Z,46.30
2023-04-30T09:42:22.637Z,47.20
2023-04-30T09:44:49.452Z,47.73
2023-04-30T09:47:18.374Z,47.13
2023-04-30T09:49:52.359Z,46.97
2023-04-30T09:52:20.460Z,46.28
2023-04-30T09:54:48.135Z,46.05
2023-04-30T09:57:16.538Z,46.22
2023-04-30T09:59:46.416Z,46.25
2023-04-30T10:02:17.466Z,45.42
2023-04-30T10:04:45.633Z,45.37
2023-04-30T10:07:14.815Z,45.43
2023-04-30T10:12:28.136Z,46.31
2023-04-30T10:15:14.978Z,46.56
2023-04-30T10:17:44.889Z,47.35
2023-04-30T10:20:13.192Z,47.20
2023-04-30T10:22:42.037Z,47.84
2023-04-30T10:25:11.643Z,46.26
2023-04-30T10:27:39.433Z,46.29
2023-04-30T10:30:09.938Z,46.34
2023-04-30T10:32:49.047Z,46.84
2023-04-30T10:35:26.465Z,47.37
2023-04-30T10:37:59.885Z,47.81
2023-04-30T10:40:27.559Z,48.50
2023-04-30T10:42:55.324Z,47.66
2023-04-30T10:48:10.546Z,48.53
2023-04-30T10:50:46.073Z,48.61
2023-04-30T10:53:16.348Z,48.26
2023-04-30T10:55:58.324Z,48.34
2023-04-30T10:58:30.907Z,48.07
2023-04-30T11:01:06.377Z,47.38
2023-04-30T11:03:35.792Z,48.25
2023-04-30T11:06:15.260Z,48.69
2023-04-30T11:08:46.437Z,49.46
2023-04-30T11:11:18.673Z,49.84
2023-04-30T11:13:46.540Z,49.22
2023-04-30T11:16:13.576Z,48.82
2023-04-30T11:18:47.169Z,48.95
2023-04-30T11:21:14.332Z,49.26
2023-04-30T11:23:45.214Z,49.08
2023-04-30T11:26:12.092Z,48.57
2023-04-30T11:28:38.874Z,48.67
2023-04-30T11:31:06.181Z,48.72
2023-04-30T11:33:34.117Z,49.18
2023-04-30T11:36:01.917Z,49.30
2023-04-30T11:38:36.123Z,48.72
2023-04-30T11:41:04.343Z,47.84
2023-04-30T11:43:33.042Z,47.44
2023-04-30T11:46:07.466Z,48.76
2023-04-30T11:48:35.656Z,47.76
2023-04-30T11:51:14.372Z,48.74
2023-04-30T11:53:41.675Z,48.32
2023-04-30T11:56:08.762Z,47.89
2023-04-30T11:58:38.301Z,47.14
2023-04-30T12:01:08.274Z,47.75
2023-04-30T12:03:41.806Z,48.33
2023-04-30T12:06:10.889Z,47.99
2023-04-30T12:08:38.326Z,49.72
2023-04-30T12:11:08.087Z,48.03
2023-04-30T12:13:34.923Z,47.21
2023-04-30T12:16:01.977Z,47.48
2023-04-30T12:18:28.676Z,47.05
2023-04-30T12:20:55.636Z,47.08
2023-04-30T12:23:22.813Z,46.25
2023-04-30T12:25:49.609Z,46.54
2023-04-30T12:28:16.654Z,46.27
2023-04-30T12:30:43.907Z,46.99
2023-04-30T12:33:11.205Z,46.54
2023-04-30T12:38:17.854Z,47.28
2023-04-30T12:40:49.197Z,46.89
2023-04-30T12:43:17.586Z,47.29
2023-04-30T12:45:46.968Z,46.45
2023-04-30T12:48:15.076Z,47.19
2023-04-30T12:50:42.139Z,46.82
2023-04-30T12:53:09.177Z,46.43
2023-04-30T12:55:37.818Z,46.43
2023-04-30T12:58:08.812Z,46.22
2023-04-30T13:00:48.429Z,46.09
2023-04-30T13:03:17.050Z,46.19
2023-04-30T13:05:50.758Z,45.55
2023-04-30T13:08:18.955Z,45.61
2023-04-30T13:10:47.021Z,46.28
2023-04-30T13:13:15.248Z,45.96
2023-04-30T13:15:43.786Z,46.89
2023-04-30T13:20:43.901Z,46.27
2023-04-30T13:23:12.174Z,46.25
2023-04-30T13:25:40.257Z,45.85
2023-04-30T13:28:07.447Z,45.67
2023-04-30T13:30:34.894Z,46.23
2023-04-30T13:33:01.925Z,45.49
2023-04-30T13:35:28.989Z,45.96
2023-04-30T13:37:56.192Z,45.34
2023-04-30T13:40:22.874Z,45.09
2023-04-30T13:42:49.624Z,45.00
2023-04-30T13:45:16.591Z,44.78
2023-04-30T13:47:43.446Z,45.06
2023-04-30T13:50:10.647Z,44.28
2023-04-30T13:52:37.406Z,44.89
2023-04-30T13:55:05.082Z,43.75
2023-04-30T13:57:33.663Z,44.63
2023-04-30T14:00:00.508Z,44.39
2023-04-30T14:02:28.560Z,43.27
2023-04-30T14:05:05.122Z,44.50
2023-04-30T14:07:33.195Z,45.27
2023-04-30T14:10:00.232Z,45.01
2023-04-30T14:12:26.920Z,45.23
2023-04-30T14:14:53.675Z,44.41
2023-04-30T14:17:20.786Z,44.65
2023-04-30T14:19:47.577Z,45.09
2023-04-30T14:22:14.603Z,45.59
2023-04-30T14:24:41.398Z,48.97
2023-04-30T14:27:08.152Z,44.92
2023-04-30T14:29:34.857Z,45.95
2023-04-30T14:32:02.273Z,44.37
2023-04-30T14:34:29.036Z,43.86
2023-04-30T14:36:56.019Z,44.14
2023-04-30T14:39:22.720Z,46.67
2023-04-30T14:41:50.277Z,44.79
2023-04-30T14:46:49.449Z,45.21
2023-04-30T14:49:16.116Z,44.64
2023-04-30T14:51:42.968Z,45.49
2023-04-30T14:54:09.883Z,44.40
2023-04-30T14:56:36.631Z,44.83
2023-04-30T14:59:03.398Z,45.49
2023-04-30T15:01:30.737Z,44.58
2023-04-30T15:03:57.504Z,44.75
2023-04-30T15:06:24.321Z,45.23
2023-04-30T15:08:51.093Z,45.55
2023-04-30T15:11:18.352Z,45.99
2023-04-30T15:13:45.009Z,45.55
2023-04-30T15:16:11.894Z,45.83
2023-04-30T15:18:39.168Z,45.27
2023-04-30T15:21:06.020Z,45.22
2023-04-30T15:23:33.941Z,45.28
2023-04-30T15:28:36.210Z,45.14
2023-04-30T15:31:06.487Z,45.29
2023-04-30T15:33:34.770Z,46.02
2023-04-30T15:36:01.534Z,44.89
2023-04-30T15:38:28.209Z,45.36
2023-04-30T15:40:54.891Z,45.38
2023-04-30T15:43:21.727Z,45.62
2023-04-30T15:45:48.674Z,45.15
2023-04-30T15:50:46.928Z,45.22
2023-04-30T15:53:13.569Z,45.39
2023-04-30T15:55:40.654Z,45.58
2023-04-30T15:58:07.385Z,46.50
2023-04-30T16:00:34.245Z,45.50
2023-04-30T16:03:01.163Z,45.60
2023-04-30T16:05:27.977Z,46.29
2023-04-30T16:07:54.813Z,46.71
2023-04-30T16:10:21.850Z,46.04
2023-04-30T16:12:48.742Z,46.45
2023-04-30T16:17:53.024Z,47.22
2023-04-30T16:20:20.646Z,46.80
2023-04-30T16:22:47.901Z,45.13
2023-04-30T16:25:14.603Z,45.38
2023-04-30T16:27:43.530Z,45.20
2023-04-30T16:30:10.467Z,45.06
2023-04-30T16:32:37.406Z,45.41
2023-04-30T16:35:04.448Z,45.84
2023-04-30T16:37:31.319Z,45.92
2023-04-30T16:39:58.299Z,46.41
2023-04-30T16:42:25.114Z,45.80
2023-04-30T16:44:51.746Z,46.52
2023-04-30T16:47:19.492Z,46.31
2023-04-30T16:49:46.153Z,46.56
2023-04-30T16:52:12.858Z,46.68
2023-04-30T16:54:39.565Z,47.45
2023-04-30T16:57:06.254Z,47.55
2023-04-30T16:59:32.961Z,47.98
2023-04-30T17:02:00.954Z,47.35
2023-04-30T17:04:27.852Z,48.37
2023-04-30T17:06:54.547Z,48.20
2023-04-30T17:11:52.580Z,47.13
2023-04-30T17:14:19.307Z,46.93
2023-04-30T17:16:47.181Z,47.45
2023-04-30T17:19:14.345Z,47.12
2023-04-30T17:21:41.011Z,47.30
2023-04-30T17:24:08.225Z,47.41
2023-04-30T17:26:34.899Z,47.21
2023-04-30T17:29:01.663Z,47.60
2023-04-30T17:31:30.706Z,47.57
2023-04-30T17:33:57.486Z,48.37
2023-04-30T17:36:25.099Z,48.62
2023-04-30T17:41:29.082Z,49.94
2023-04-30T17:43:55.749Z,50.35
2023-04-30T17:46:22.664Z,49.44
2023-04-30T17:48:49.531Z,49.17
2023-04-30T17:51:16.408Z,49.72
2023-04-30T17:53:43.056Z,48.91
2023-04-30T17:56:10.005Z,49.41
2023-04-30T17:58:39.134Z,48.28
2023-04-30T18:01:06.816Z,48.74
2023-04-30T18:03:36.690Z,49.42
2023-04-30T18:06:04.128Z,49.61
2023-04-30T18:08:31.281Z,50.19
2023-04-30T18:10:58.352Z,49.83
2023-04-30T18:13:25.084Z,49.66
2023-04-30T18:15:51.830Z,50.40
2023-04-30T18:18:18.774Z,50.01
2023-04-30T18:20:46.095Z,51.32
2023-04-30T18:23:14.019Z,52.81
2023-04-30T18:25:42.636Z,52.18
2023-04-30T18:28:09.873Z,52.08
2023-04-30T18:30:37.088Z,52.72
2023-04-30T18:33:07.511Z,55.65
2023-04-30T18:35:34.854Z,57.26
2023-04-30T18:38:02.094Z,56.75
2023-04-30T18:40:28.978Z,57.29
2023-04-30T18:42:56.996Z,58.33
2023-04-30T18:45:24.176Z,59.42
2023-04-30T18:47:50.968Z,59.84
2023-04-30T18:50:18.233Z,58.91
2023-04-30T18:52:45.405Z,58.43
2023-04-30T18:55:14.316Z,59.91
2023-04-30T18:57:42.520Z,60.55
2023-04-30T19:00:10.716Z,60.94
2023-04-30T19:02:37.652Z,62.80
2023-04-30T19:05:04.941Z,64.07
2023-04-30T19:07:31.652Z,63.42
2023-04-30T19:09:58.844Z,63.20
2023-04-30T19:12:25.663Z,62.79
2023-04-30T19:14:52.294Z,62.99
2023-04-30T19:17:21.495Z,63.01
2023-04-30T19:19:50.309Z,64.02
2023-04-30T19:22:17.500Z,64.30
2023-04-30T19:24:44.200Z,64.85
2023-04-30T19:27:11.431Z,66.23
2023-04-30T19:29:39.654Z,67.64
2023-04-30T19:32:06.946Z,67.99
2023-04-30T19:34:33.753Z,68.49
2023-04-30T19:37:00.815Z,68.20
2023-04-30T19:39:32.026Z,68.18
2023-04-30T19:41:59.239Z,68.42
2023-04-30T19:44:26.106Z,68.81
2023-04-30T19:46:52.937Z,71.01
2023-04-30T19:51:50.908Z,69.33
2023-04-30T19:54:18.193Z,69.71
2023-04-30T19:56:45.175Z,69.80
2023-04-30T19:59:11.976Z,71.59
2023-04-30T20:01:38.905Z,71.76
2023-04-30T20:04:06.646Z,72.87
2023-04-30T20:06:33.748Z,72.21
2023-04-30T20:09:01.464Z,73.72
2023-04-30T20:11:28.505Z,73.46
2023-04-30T20:13:55.800Z,73.79
2023-04-30T20:16:22.692Z,74.85
2023-04-30T20:18:49.538Z,74.88
2023-04-30T20:21:18.108Z,75.37
2023-04-30T20:23:48.835Z,74.47
2023-04-30T20:26:15.555Z,74.50
2023-04-30T20:28:43.991Z,75.13
2023-04-30T20:31:11.176Z,76.33
2023-04-30T20:33:37.871Z,76.82
2023-04-30T20:36:04.794Z,76.70
2023-04-30T20:38:31.464Z,76.92
2023-04-30T20:40:58.990Z,77.87
2023-04-30T20:43:25.672Z,78.44
2023-04-30T20:45:52.537Z,78.12
2023-04-30T20:48:19.305Z,79.38
2023-04-30T20:50:46.307Z,78.83
2023-04-30T20:53:14.405Z,78.77
2023-04-30T20:58:12.891Z,79.77
2023-04-30T21:00:39.675Z,79.54
2023-04-30T21:03:06.614Z,79.95
2023-04-30T21:05:33.542Z,80.21
2023-04-30T21:08:01.961Z,80.53
2023-04-30T21:10:36.210Z,81.00
2023-04-30T21:13:05.530Z,80.50
2023-04-30T21:15:34.627Z,80.26
2023-04-30T21:18:01.473Z,81.50
2023-04-30T21:20:28.331Z,81.24
2023-04-30T21:22:56.462Z,81.61
2023-04-30T21:25:23.210Z,82.05
2023-04-30T21:27:49.959Z,81.80
2023-04-30T21:30:17.415Z,82.47
2023-04-30T21:32:49.823Z,82.47
2023-04-30T21:35:16.799Z,81.75
2023-04-30T21:37:43.931Z,81.71
2023-04-30T21:40:11.187Z,81.29
2023-04-30T21:42:37.929Z,81.53
2023-04-30T21:45:05.141Z,82.67
2023-04-30T21:47:32.008Z,83.25
2023-04-30T21:49:59.217Z,82.67
2023-04-30T21:52:26.241Z,82.76
2023-04-30T21:54:53.005Z,82.84
2023-04-30T21:57:19.721Z,82.67
2023-04-30T21:59:46.431Z,83.45
2023-04-30T22:02:23.246Z,84.87
2023-04-30T22:04:50.781Z,85.41
2023-04-30T22:07:17.662Z,85.12
2023-04-30T22:09:45.066Z,86.27
2023-04-30T22:12:11.906Z,85.73
2023-04-30T22:14:38.651Z,84.96
2023-04-30T22:17:05.402Z,85.62
2023-04-30T22:19:32.080Z,84.77
2023-04-30T22:21:58.986Z,84.83
2023-04-30T22:24:25.608Z,84.67
2023-04-30T22:26:52.266Z,84.28
2023-04-30T22:29:19.868Z,83.69
2023-04-30T22:31:46.645Z,85.05
2023-04-30T22:34:15.586Z,85.53
2023-04-30T22:36:42.514Z,86.17
2023-04-30T22:39:10.298Z,86.58
2023-04-30T22:41:37.084Z,86.31
2023-04-30T22:44:04.704Z,87.11
2023-04-30T22:46:33.750Z,85.56
2023-04-30T22:49:01.268Z,85.94
2023-04-30T22:51:28.039Z,86.38
2023-04-30T22:53:56.596Z,85.73
2023-04-30T22:56:23.461Z,86.61
2023-04-30T22:58:50.169Z,84.51
2023-04-30T23:01:17.125Z,84.27
2023-04-30T23:03:43.873Z,85.63
2023-04-30T23:06:11.266Z,85.96
2023-04-30T23:08:38.126Z,85.83
2023-04-30T23:11:05.494Z,85.51
2023-04-30T23:13:32.665Z,85.78
2023-04-30T23:16:00.291Z,86.75
2023-04-30T23:18:27.614Z,85.80
2023-04-30T23:20:59.920Z,86.88
2023-04-30T23:23:27.556Z,86.76
2023-04-30T23:25:55.657Z,86.86
2023-04-30T23:28:24.564Z,86.81
2023-04-30T23:30:52.463Z,88.46
2023-04-30T23:33:19.814Z,88.60
2023-04-30T23:48:26.246Z,88.26
2023-04-30T23:51:03.284Z,88.42
2023-04-30T23:53:30.090Z,88.60
2023-04-30T23:55:59.741Z,89.27
2023-04-30T23:58:27.236Z,87.68
